sensor_id;sensor_type;location;lat;lon;timestamp;temperature;humidity
75985;DHT22;65033;44.660;37.758;2022-11-20T00:01:14;27.61;45.75
75985;DHT22;65033;44.660;37.758;2022-11-20T00:02:19;27.61;45.77
75985;DHT22;65033;44.660;37.758;2022-11-20T00:03:22;27.63;45.77
75985;DHT22;65033;44.660;37.758;2022-11-20T00:04:26;27.63;45.81
75985;DHT22;65033;44.660;37.758;2022-11-20T00:05:32;27.63;45.80
75985;DHT22;65033;44.660;37.758;2022-11-20T00:06:35;27.61;45.81
75985;DHT22;65033;44.660;37.758;2022-11-20T00:07:39;27.61;45.84
75985;DHT22;65033;44.660;37.758;2022-11-20T00:08:42;27.61;45.81
75985;DHT22;65033;44.660;37.758;2022-11-20T00:09:46;27.64;45.83
75985;DHT22;65033;44.660;37.758;2022-11-20T00:10:49;27.63;45.86
75985;DHT22;65033;44.660;37.758;2022-11-20T00:11:52;27.63;45.88
75985;DHT22;65033;44.660;37.758;2022-11-20T00:12:57;27.63;45.87
75985;DHT22;65033;44.660;37.758;2022-11-20T00:14:01;27.63;45.88
75985;DHT22;65033;44.660;37.758;2022-11-20T00:15:05;27.64;45.93
75985;DHT22;65033;44.660;37.758;2022-11-20T00:16:11;27.63;45.95
75985;DHT22;65033;44.660;37.758;2022-11-20T00:17:15;27.64;45.96
75985;DHT22;65033;44.660;37.758;2022-11-20T00:18:19;27.64;45.98
75985;DHT22;65033;44.660;37.758;2022-11-20T00:19:22;27.64;45.98
75985;DHT22;65033;44.660;37.758;2022-11-20T00:20:26;27.63;46.01
75985;DHT22;65033;44.660;37.758;2022-11-20T00:21:29;27.64;45.99
75985;DHT22;65033;44.660;37.758;2022-11-20T00:22:33;27.64;45.99
75985;DHT22;65033;44.660;37.758;2022-11-20T00:23:36;27.63;46.01
75985;DHT22;65033;44.660;37.758;2022-11-20T00:24:39;27.64;46.02
75985;DHT22;65033;44.660;37.758;2022-11-20T00:25:44;27.64;46.04
75985;DHT22;65033;44.660;37.758;2022-11-20T00:26:48;27.61;46.05
75985;DHT22;65033;44.660;37.758;2022-11-20T00:27:51;27.63;46.02
75985;DHT22;65033;44.660;37.758;2022-11-20T00:28:56;27.63;46.00
75985;DHT22;65033;44.660;37.758;2022-11-20T00:30:00;27.63;46.04
75985;DHT22;65033;44.660;37.758;2022-11-20T00:31:03;27.60;46.03
75985;DHT22;65033;44.660;37.758;2022-11-20T00:32:08;27.63;46.04
75985;DHT22;65033;44.660;37.758;2022-11-20T00:33:12;27.63;46.03
75985;DHT22;65033;44.660;37.758;2022-11-20T00:34:15;27.61;46.05
75985;DHT22;65033;44.660;37.758;2022-11-20T00:35:18;27.63;46.08
75985;DHT22;65033;44.660;37.758;2022-11-20T00:36:23;27.60;46.04
75985;DHT22;65033;44.660;37.758;2022-11-20T00:37:27;27.61;46.10
75985;DHT22;65033;44.660;37.758;2022-11-20T00:38:30;27.61;46.08
75985;DHT22;65033;44.660;37.758;2022-11-20T00:39:33;27.63;46.07
75985;DHT22;65033;44.660;37.758;2022-11-20T00:40:37;27.63;46.09
75985;DHT22;65033;44.660;37.758;2022-11-20T00:41:40;27.63;46.06
75985;DHT22;65033;44.660;37.758;2022-11-20T00:42:44;27.64;46.07
75985;DHT22;65033;44.660;37.758;2022-11-20T00:43:47;27.63;46.06
75985;DHT22;65033;44.660;37.758;2022-11-20T00:44:50;27.63;46.06
75985;DHT22;65033;44.660;37.758;2022-11-20T00:45:57;27.63;46.06
75985;DHT22;65033;44.660;37.758;2022-11-20T00:47:01;27.63;46.04
75985;DHT22;65033;44.660;37.758;2022-11-20T00:48:05;27.63;46.00
75985;DHT22;65033;44.660;37.758;2022-11-20T00:49:09;27.63;46.02
75985;DHT22;65033;44.660;37.758;2022-11-20T00:50:12;27.63;46.02
75985;DHT22;65033;44.660;37.758;2022-11-20T00:51:18;27.63;45.99
75985;DHT22;65033;44.660;37.758;2022-11-20T00:52:22;27.65;45.99
75985;DHT22;65033;44.660;37.758;2022-11-20T00:53:25;27.63;46.02
75985;DHT22;65033;44.660;37.758;2022-11-20T00:54:29;27.64;45.97
75985;DHT22;65033;44.660;37.758;2022-11-20T00:55:32;27.63;45.97
75985;DHT22;65033;44.660;37.758;2022-11-20T00:56:35;27.63;45.99
75985;DHT22;65033;44.660;37.758;2022-11-20T00:57:39;27.63;45.97
75985;DHT22;65033;44.660;37.758;2022-11-20T00:58:44;27.63;45.93
75985;DHT22;65033;44.660;37.758;2022-11-20T00:59:48;27.61;45.92
75985;DHT22;65033;44.660;37.758;2022-11-20T01:00:51;27.63;45.93
75985;DHT22;65033;44.660;37.758;2022-11-20T01:01:55;27.63;45.93
75985;DHT22;65033;44.660;37.758;2022-11-20T01:02:59;27.63;45.90
75985;DHT22;65033;44.660;37.758;2022-11-20T01:04:04;27.63;45.90
75985;DHT22;65033;44.660;37.758;2022-11-20T01:05:08;27.63;45.93
75985;DHT22;65033;44.660;37.758;2022-11-20T01:06:13;27.63;45.93
75985;DHT22;65033;44.660;37.758;2022-11-20T01:07:17;27.64;45.93
75985;DHT22;65033;44.660;37.758;2022-11-20T01:08:20;27.63;45.93
75985;DHT22;65033;44.660;37.758;2022-11-20T01:09:24;27.64;45.92
75985;DHT22;65033;44.660;37.758;2022-11-20T01:10:27;27.63;45.96
75985;DHT22;65033;44.660;37.758;2022-11-20T01:11:32;27.64;45.99
75985;DHT22;65033;44.660;37.758;2022-11-20T01:12:36;27.65;45.96
75985;DHT22;65033;44.660;37.758;2022-11-20T01:13:39;27.61;45.95
75985;DHT22;65033;44.660;37.758;2022-11-20T01:14:43;27.63;45.94
75985;DHT22;65033;44.660;37.758;2022-11-20T01:15:47;27.63;45.93
75985;DHT22;65033;44.660;37.758;2022-11-20T01:16:51;27.64;45.91
75985;DHT22;65033;44.660;37.758;2022-11-20T01:17:54;27.61;45.92
75985;DHT22;65033;44.660;37.758;2022-11-20T01:19:00;27.64;45.86
75985;DHT22;65033;44.660;37.758;2022-11-20T01:20:06;27.63;45.88
75985;DHT22;65033;44.660;37.758;2022-11-20T01:21:11;27.64;45.90
75985;DHT22;65033;44.660;37.758;2022-11-20T01:22:14;27.63;45.87
75985;DHT22;65033;44.660;37.758;2022-11-20T01:23:18;27.63;45.86
75985;DHT22;65033;44.660;37.758;2022-11-20T01:24:22;27.63;45.87
75985;DHT22;65033;44.660;37.758;2022-11-20T01:25:25;27.63;45.84
75985;DHT22;65033;44.660;37.758;2022-11-20T01:26:30;27.64;45.88
75985;DHT22;65033;44.660;37.758;2022-11-20T01:27:34;27.64;45.85
75985;DHT22;65033;44.660;37.758;2022-11-20T01:28:37;27.64;45.83
75985;DHT22;65033;44.660;37.758;2022-11-20T01:29:41;27.64;45.85
75985;DHT22;65033;44.660;37.758;2022-11-20T01:30:44;27.64;45.86
75985;DHT22;65033;44.660;37.758;2022-11-20T01:31:47;27.64;45.82
75985;DHT22;65033;44.660;37.758;2022-11-20T01:32:51;27.63;45.84
75985;DHT22;65033;44.660;37.758;2022-11-20T01:33:56;27.63;45.88
75985;DHT22;65033;44.660;37.758;2022-11-20T01:35:00;27.63;45.93
75985;DHT22;65033;44.660;37.758;2022-11-20T01:36:06;27.65;45.94
75985;DHT22;65033;44.660;37.758;2022-11-20T01:37:09;27.64;45.95
75985;DHT22;65033;44.660;37.758;2022-11-20T01:38:12;27.63;45.99
75985;DHT22;65033;44.660;37.758;2022-11-20T01:39:17;27.64;46.02
75985;DHT22;65033;44.660;37.758;2022-11-20T01:40:21;27.63;46.00
75985;DHT22;65033;44.660;37.758;2022-11-20T01:41:25;27.63;45.99
75985;DHT22;65033;44.660;37.758;2022-11-20T01:44:55;27.61;45.96
75985;DHT22;65033;44.660;37.758;2022-11-20T01:46:06;27.63;45.97
75985;DHT22;65033;44.660;37.758;2022-11-20T01:47:14;27.64;45.98
75985;DHT22;65033;44.660;37.758;2022-11-20T01:48:20;27.63;45.98
75985;DHT22;65033;44.660;37.758;2022-11-20T01:49:30;27.64;46.02
75985;DHT22;65033;44.660;37.758;2022-11-20T01:50:37;27.61;45.99
75985;DHT22;65033;44.660;37.758;2022-11-20T01:51:45;27.64;45.99
75985;DHT22;65033;44.660;37.758;2022-11-20T01:52:52;27.63;45.98
75985;DHT22;65033;44.660;37.758;2022-11-20T01:54:00;27.63;45.97
75985;DHT22;65033;44.660;37.758;2022-11-20T01:55:07;27.63;46.01
75985;DHT22;65033;44.660;37.758;2022-11-20T01:56:13;27.61;46.03
75985;DHT22;65033;44.660;37.758;2022-11-20T01:57:18;27.60;46.06
75985;DHT22;65033;44.660;37.758;2022-11-20T01:58:25;27.61;46.07
75985;DHT22;65033;44.660;37.758;2022-11-20T01:59:30;27.63;46.09
75985;DHT22;65033;44.660;37.758;2022-11-20T02:00:33;27.59;46.12
75985;DHT22;65033;44.660;37.758;2022-11-20T02:01:37;27.60;46.17
75985;DHT22;65033;44.660;37.758;2022-11-20T02:02:45;27.60;46.17
75985;DHT22;65033;44.660;37.758;2022-11-20T02:03:50;27.59;46.22
75985;DHT22;65033;44.660;37.758;2022-11-20T02:04:54;27.60;46.22
75985;DHT22;65033;44.660;37.758;2022-11-20T02:06:04;27.59;46.21
75985;DHT22;65033;44.660;37.758;2022-11-20T02:07:10;27.60;46.20
75985;DHT22;65033;44.660;37.758;2022-11-20T02:08:14;27.59;46.27
75985;DHT22;65033;44.660;37.758;2022-11-20T02:09:18;27.61;46.25
75985;DHT22;65033;44.660;37.758;2022-11-20T02:10:21;27.61;46.28
75985;DHT22;65033;44.660;37.758;2022-11-20T02:11:25;27.59;46.27
75985;DHT22;65033;44.660;37.758;2022-11-20T02:12:28;27.59;46.28
75985;DHT22;65033;44.660;37.758;2022-11-20T02:13:50;27.59;46.26
75985;DHT22;65033;44.660;37.758;2022-11-20T02:14:54;27.59;46.32
75985;DHT22;65033;44.660;37.758;2022-11-20T02:15:57;27.60;46.32
75985;DHT22;65033;44.660;37.758;2022-11-20T02:17:00;27.61;46.31
75985;DHT22;65033;44.660;37.758;2022-11-20T02:18:05;27.61;46.34
75985;DHT22;65033;44.660;37.758;2022-11-20T02:19:14;27.60;46.32
75985;DHT22;65033;44.660;37.758;2022-11-20T02:20:19;27.60;46.37
75985;DHT22;65033;44.660;37.758;2022-11-20T02:21:33;27.61;46.44
75985;DHT22;65033;44.660;37.758;2022-11-20T02:22:44;27.61;46.43
75985;DHT22;65033;44.660;37.758;2022-11-20T02:24:13;27.60;46.50
75985;DHT22;65033;44.660;37.758;2022-11-20T02:25:17;27.60;46.48
75985;DHT22;65033;44.660;37.758;2022-11-20T02:26:22;27.60;46.52
75985;DHT22;65033;44.660;37.758;2022-11-20T02:27:26;27.60;46.50
75985;DHT22;65033;44.660;37.758;2022-11-20T02:28:30;27.60;46.55
75985;DHT22;65033;44.660;37.758;2022-11-20T02:29:35;27.59;46.61
75985;DHT22;65033;44.660;37.758;2022-11-20T02:30:39;27.57;46.67
75985;DHT22;65033;44.660;37.758;2022-11-20T02:31:43;27.58;46.69
75985;DHT22;65033;44.660;37.758;2022-11-20T02:32:47;27.57;46.69
75985;DHT22;65033;44.660;37.758;2022-11-20T02:33:55;27.56;46.70
75985;DHT22;65033;44.660;37.758;2022-11-20T02:35:05;27.58;46.65
75985;DHT22;65033;44.660;37.758;2022-11-20T02:36:11;27.58;46.69
75985;DHT22;65033;44.660;37.758;2022-11-20T02:37:18;27.57;46.68
75985;DHT22;65033;44.660;37.758;2022-11-20T02:38:22;27.57;46.70
75985;DHT22;65033;44.660;37.758;2022-11-20T02:39:28;27.59;46.73
75985;DHT22;65033;44.660;37.758;2022-11-20T02:40:31;27.57;46.74
75985;DHT22;65033;44.660;37.758;2022-11-20T02:41:36;27.58;46.74
75985;DHT22;65033;44.660;37.758;2022-11-20T02:42:40;27.58;46.74
75985;DHT22;65033;44.660;37.758;2022-11-20T02:43:43;27.57;46.73
75985;DHT22;65033;44.660;37.758;2022-11-20T02:44:47;27.58;46.75
75985;DHT22;65033;44.660;37.758;2022-11-20T02:45:50;27.59;46.76
75985;DHT22;65033;44.660;37.758;2022-11-20T02:46:56;27.59;46.75
75985;DHT22;65033;44.660;37.758;2022-11-20T02:47:59;27.59;46.77
75985;DHT22;65033;44.660;37.758;2022-11-20T02:49:03;27.59;46.75
75985;DHT22;65033;44.660;37.758;2022-11-20T02:50:07;27.58;46.79
75985;DHT22;65033;44.660;37.758;2022-11-20T02:51:11;27.58;46.77
75985;DHT22;65033;44.660;37.758;2022-11-20T02:52:14;27.58;46.80
75985;DHT22;65033;44.660;37.758;2022-11-20T02:53:18;27.58;46.80
75985;DHT22;65033;44.660;37.758;2022-11-20T02:54:21;27.58;46.82
75985;DHT22;65033;44.660;37.758;2022-11-20T02:55:26;27.57;46.80
75985;DHT22;65033;44.660;37.758;2022-11-20T02:56:29;27.58;46.82
75985;DHT22;65033;44.660;37.758;2022-11-20T02:57:33;27.58;46.82
75985;DHT22;65033;44.660;37.758;2022-11-20T02:58:37;27.58;46.85
75985;DHT22;65033;44.660;37.758;2022-11-20T02:59:40;27.58;46.86
75985;DHT22;65033;44.660;37.758;2022-11-20T03:00:43;27.58;46.93
75985;DHT22;65033;44.660;37.758;2022-11-20T03:01:47;27.57;46.94
75985;DHT22;65033;44.660;37.758;2022-11-20T03:02:51;27.57;46.92
75985;DHT22;65033;44.660;37.758;2022-11-20T03:03:54;27.58;46.90
75985;DHT22;65033;44.660;37.758;2022-11-20T03:04:59;27.58;46.89
75985;DHT22;65033;44.660;37.758;2022-11-20T03:06:02;27.56;46.93
75985;DHT22;65033;44.660;37.758;2022-11-20T03:07:07;27.58;46.91
75985;DHT22;65033;44.660;37.758;2022-11-20T03:08:10;27.57;46.91
75985;DHT22;65033;44.660;37.758;2022-11-20T03:09:13;27.58;46.89
75985;DHT22;65033;44.660;37.758;2022-11-20T03:10:17;27.58;46.88
75985;DHT22;65033;44.660;37.758;2022-11-20T03:11:21;27.58;46.90
75985;DHT22;65033;44.660;37.758;2022-11-20T03:12:25;27.58;46.90
75985;DHT22;65033;44.660;37.758;2022-11-20T03:13:28;27.58;46.90
75985;DHT22;65033;44.660;37.758;2022-11-20T03:14:31;27.59;46.92
75985;DHT22;65033;44.660;37.758;2022-11-20T03:15:35;27.59;46.91
75985;DHT22;65033;44.660;37.758;2022-11-20T03:16:39;27.58;46.93
75985;DHT22;65033;44.660;37.758;2022-11-20T03:17:43;27.58;46.93
75985;DHT22;65033;44.660;37.758;2022-11-20T03:18:46;27.59;46.95
75985;DHT22;65033;44.660;37.758;2022-11-20T03:19:50;27.58;46.93
75985;DHT22;65033;44.660;37.758;2022-11-20T03:20:57;27.59;46.96
75985;DHT22;65033;44.660;37.758;2022-11-20T03:22:01;27.58;46.95
75985;DHT22;65033;44.660;37.758;2022-11-20T03:23:05;27.59;46.96
75985;DHT22;65033;44.660;37.758;2022-11-20T03:24:08;27.60;46.98
75985;DHT22;65033;44.660;37.758;2022-11-20T03:25:12;27.58;47.04
75985;DHT22;65033;44.660;37.758;2022-11-20T03:26:17;27.58;47.06
75985;DHT22;65033;44.660;37.758;2022-11-20T03:27:23;27.57;47.07
75985;DHT22;65033;44.660;37.758;2022-11-20T03:28:26;27.57;47.07
75985;DHT22;65033;44.660;37.758;2022-11-20T03:29:29;27.57;47.14
75985;DHT22;65033;44.660;37.758;2022-11-20T03:30:33;27.57;47.13
75985;DHT22;65033;44.660;37.758;2022-11-20T03:31:38;27.56;47.15
75985;DHT22;65033;44.660;37.758;2022-11-20T03:32:44;27.56;47.18
75985;DHT22;65033;44.660;37.758;2022-11-20T03:33:48;27.55;47.15
75985;DHT22;65033;44.660;37.758;2022-11-20T03:34:52;27.57;47.11
75985;DHT22;65033;44.660;37.758;2022-11-20T03:35:55;27.56;47.13
75985;DHT22;65033;44.660;37.758;2022-11-20T03:37:03;27.56;47.12
75985;DHT22;65033;44.660;37.758;2022-11-20T03:38:06;27.56;47.16
75985;DHT22;65033;44.660;37.758;2022-11-20T03:39:10;27.56;47.21
75985;DHT22;65033;44.660;37.758;2022-11-20T03:40:13;27.56;47.18
75985;DHT22;65033;44.660;37.758;2022-11-20T03:41:19;27.57;47.18
75985;DHT22;65033;44.660;37.758;2022-11-20T03:42:27;27.58;47.16
75985;DHT22;65033;44.660;37.758;2022-11-20T03:43:52;27.57;47.15
75985;DHT22;65033;44.660;37.758;2022-11-20T03:45:04;27.58;47.17
75985;DHT22;65033;44.660;37.758;2022-11-20T03:46:18;27.57;47.23
75985;DHT22;65033;44.660;37.758;2022-11-20T03:47:23;27.56;47.21
75985;DHT22;65033;44.660;37.758;2022-11-20T03:48:40;27.56;47.25
75985;DHT22;65033;44.660;37.758;2022-11-20T03:49:51;27.56;47.25
75985;DHT22;65033;44.660;37.758;2022-11-20T03:51:07;27.56;47.28
75985;DHT22;65033;44.660;37.758;2022-11-20T03:52:14;27.56;47.28
75985;DHT22;65033;44.660;37.758;2022-11-20T03:53:24;27.56;47.27
75985;DHT22;65033;44.660;37.758;2022-11-20T03:54:30;27.56;47.31
75985;DHT22;65033;44.660;37.758;2022-11-20T03:55:34;27.55;47.31
75985;DHT22;65033;44.660;37.758;2022-11-20T03:56:38;27.55;47.31
75985;DHT22;65033;44.660;37.758;2022-11-20T03:57:44;27.55;47.33
75985;DHT22;65033;44.660;37.758;2022-11-20T03:58:47;27.54;47.34
75985;DHT22;65033;44.660;37.758;2022-11-20T03:59:50;27.54;47.33
75985;DHT22;65033;44.660;37.758;2022-11-20T04:00:54;27.56;47.32
75985;DHT22;65033;44.660;37.758;2022-11-20T04:01:57;27.56;47.31
75985;DHT22;65033;44.660;37.758;2022-11-20T04:03:03;27.56;47.32
75985;DHT22;65033;44.660;37.758;2022-11-20T04:04:06;27.56;47.32
75985;DHT22;65033;44.660;37.758;2022-11-20T04:05:09;27.56;47.28
75985;DHT22;65033;44.660;37.758;2022-11-20T04:06:16;27.57;47.28
75985;DHT22;65033;44.660;37.758;2022-11-20T04:07:19;27.55;47.30
75985;DHT22;65033;44.660;37.758;2022-11-20T04:08:23;27.54;47.44
75985;DHT22;65033;44.660;37.758;2022-11-20T04:09:26;27.51;47.50
75985;DHT22;65033;44.660;37.758;2022-11-20T04:10:29;27.47;47.51
75985;DHT22;65033;44.660;37.758;2022-11-20T04:11:34;27.46;47.60
75985;DHT22;65033;44.660;37.758;2022-11-20T04:12:37;27.46;47.69
75985;DHT22;65033;44.660;37.758;2022-11-20T04:13:49;27.46;47.67
75985;DHT22;65033;44.660;37.758;2022-11-20T04:14:53;27.47;47.72
75985;DHT22;65033;44.660;37.758;2022-11-20T04:15:57;27.46;47.70
75985;DHT22;65033;44.660;37.758;2022-11-20T04:17:03;27.47;47.70
75985;DHT22;65033;44.660;37.758;2022-11-20T04:18:09;27.47;47.67
75985;DHT22;65033;44.660;37.758;2022-11-20T04:19:16;27.49;47.76
75985;DHT22;65033;44.660;37.758;2022-11-20T04:20:28;27.49;47.69
75985;DHT22;65033;44.660;37.758;2022-11-20T04:21:32;27.47;47.67
75985;DHT22;65033;44.660;37.758;2022-11-20T04:22:35;27.50;47.70
75985;DHT22;65033;44.660;37.758;2022-11-20T04:23:39;27.49;47.75
75985;DHT22;65033;44.660;37.758;2022-11-20T04:24:42;27.49;47.71
75985;DHT22;65033;44.660;37.758;2022-11-20T04:25:45;27.49;47.72
75985;DHT22;65033;44.660;37.758;2022-11-20T04:26:48;27.49;47.75
75985;DHT22;65033;44.660;37.758;2022-11-20T04:27:52;27.50;47.73
75985;DHT22;65033;44.660;37.758;2022-11-20T04:28:57;27.47;47.76
75985;DHT22;65033;44.660;37.758;2022-11-20T04:30:01;27.47;47.86
75985;DHT22;65033;44.660;37.758;2022-11-20T04:31:06;27.47;47.83
75985;DHT22;65033;44.660;37.758;2022-11-20T04:32:09;27.46;47.79
75985;DHT22;65033;44.660;37.758;2022-11-20T04:33:13;27.49;47.82
75985;DHT22;65033;44.660;37.758;2022-11-20T04:34:16;27.50;47.82
75985;DHT22;65033;44.660;37.758;2022-11-20T04:35:19;27.51;47.83
75985;DHT22;65033;44.660;37.758;2022-11-20T04:36:25;27.53;48.00
75985;DHT22;65033;44.660;37.758;2022-11-20T04:37:28;27.53;47.92
75985;DHT22;65033;44.660;37.758;2022-11-20T04:38:32;27.54;47.92
75985;DHT22;65033;44.660;37.758;2022-11-20T04:39:35;27.56;47.92
75985;DHT22;65033;44.660;37.758;2022-11-20T04:40:39;27.57;47.84
75985;DHT22;65033;44.660;37.758;2022-11-20T04:41:42;27.57;47.89
75985;DHT22;65033;44.660;37.758;2022-11-20T04:42:46;27.58;47.89
75985;DHT22;65033;44.660;37.758;2022-11-20T04:43:50;27.60;47.85
75985;DHT22;65033;44.660;37.758;2022-11-20T04:44:55;27.61;47.88
75985;DHT22;65033;44.660;37.758;2022-11-20T04:46:00;27.61;47.86
75985;DHT22;65033;44.660;37.758;2022-11-20T04:47:04;27.63;47.85
75985;DHT22;65033;44.660;37.758;2022-11-20T04:48:07;27.64;47.81
75985;DHT22;65033;44.660;37.758;2022-11-20T04:49:14;27.64;47.83
75985;DHT22;65033;44.660;37.758;2022-11-20T04:50:17;27.64;47.85
75985;DHT22;65033;44.660;37.758;2022-11-20T04:51:20;27.65;47.85
75985;DHT22;65033;44.660;37.758;2022-11-20T04:52:24;27.66;47.81
75985;DHT22;65033;44.660;37.758;2022-11-20T04:53:30;27.65;47.82
75985;DHT22;65033;44.660;37.758;2022-11-20T04:54:44;27.65;47.83
75985;DHT22;65033;44.660;37.758;2022-11-20T04:55:47;27.65;47.84
75985;DHT22;65033;44.660;37.758;2022-11-20T04:56:50;27.65;47.87
75985;DHT22;65033;44.660;37.758;2022-11-20T04:57:54;27.66;47.83
75985;DHT22;65033;44.660;37.758;2022-11-20T04:59:00;27.66;47.85
75985;DHT22;65033;44.660;37.758;2022-11-20T05:00:07;27.66;47.99
75985;DHT22;65033;44.660;37.758;2022-11-20T05:01:13;27.65;47.94
75985;DHT22;65033;44.660;37.758;2022-11-20T05:02:17;27.66;47.97
75985;DHT22;65033;44.660;37.758;2022-11-20T05:03:20;27.68;48.00
75985;DHT22;65033;44.660;37.758;2022-11-20T05:04:23;27.68;48.04
75985;DHT22;65033;44.660;37.758;2022-11-20T05:05:27;27.68;48.08
75985;DHT22;65033;44.660;37.758;2022-11-20T05:06:30;27.69;48.18
75985;DHT22;65033;44.660;37.758;2022-11-20T05:07:34;27.69;48.13
75985;DHT22;65033;44.660;37.758;2022-11-20T05:08:37;27.70;48.21
75985;DHT22;65033;44.660;37.758;2022-11-20T05:09:40;27.72;48.22
75985;DHT22;65033;44.660;37.758;2022-11-20T05:10:44;27.73;48.34
75985;DHT22;65033;44.660;37.758;2022-11-20T05:11:47;27.72;48.31
75985;DHT22;65033;44.660;37.758;2022-11-20T05:12:53;27.74;48.37
75985;DHT22;65033;44.660;37.758;2022-11-20T05:13:58;27.75;48.42
75985;DHT22;65033;44.660;37.758;2022-11-20T05:15:03;27.76;48.47
75985;DHT22;65033;44.660;37.758;2022-11-20T05:16:09;27.75;48.53
75985;DHT22;65033;44.660;37.758;2022-11-20T05:17:13;27.76;48.55
75985;DHT22;65033;44.660;37.758;2022-11-20T05:18:28;27.76;48.60
75985;DHT22;65033;44.660;37.758;2022-11-20T05:19:31;27.76;48.59
75985;DHT22;65033;44.660;37.758;2022-11-20T05:20:35;27.78;48.69
75985;DHT22;65033;44.660;37.758;2022-11-20T05:21:39;27.76;48.56
75985;DHT22;65033;44.660;37.758;2022-11-20T05:22:43;27.78;48.62
75985;DHT22;65033;44.660;37.758;2022-11-20T05:23:46;27.78;48.69
75985;DHT22;65033;44.660;37.758;2022-11-20T05:24:49;27.76;48.78
75985;DHT22;65033;44.660;37.758;2022-11-20T05:25:54;27.76;48.73
75985;DHT22;65033;44.660;37.758;2022-11-20T05:27:00;27.76;48.75
75985;DHT22;65033;44.660;37.758;2022-11-20T05:28:03;27.76;48.79
75985;DHT22;65033;44.660;37.758;2022-11-20T05:29:09;27.78;48.69
75985;DHT22;65033;44.660;37.758;2022-11-20T05:30:13;27.76;48.70
75985;DHT22;65033;44.660;37.758;2022-11-20T05:31:20;27.76;48.70
75985;DHT22;65033;44.660;37.758;2022-11-20T05:32:26;27.76;48.67
75985;DHT22;65033;44.660;37.758;2022-11-20T05:33:30;27.76;48.63
75985;DHT22;65033;44.660;37.758;2022-11-20T05:34:33;27.76;48.60
75985;DHT22;65033;44.660;37.758;2022-11-20T05:35:37;27.76;48.60
75985;DHT22;65033;44.660;37.758;2022-11-20T05:36:40;27.76;48.57
75985;DHT22;65033;44.660;37.758;2022-11-20T05:37:43;27.78;48.59
75985;DHT22;65033;44.660;37.758;2022-11-20T05:38:47;27.80;48.57
75985;DHT22;65033;44.660;37.758;2022-11-20T05:39:52;27.79;48.53
75985;DHT22;65033;44.660;37.758;2022-11-20T05:41:03;27.79;48.57
75985;DHT22;65033;44.660;37.758;2022-11-20T05:42:06;27.79;48.52
75985;DHT22;65033;44.660;37.758;2022-11-20T05:43:28;27.79;48.48
75985;DHT22;65033;44.660;37.758;2022-11-20T05:44:34;27.80;48.50
75985;DHT22;65033;44.660;37.758;2022-11-20T05:45:37;27.79;48.50
75985;DHT22;65033;44.660;37.758;2022-11-20T05:46:42;27.80;48.48
75985;DHT22;65033;44.660;37.758;2022-11-20T05:47:45;27.80;48.47
75985;DHT22;65033;44.660;37.758;2022-11-20T05:48:49;27.81;48.42
75985;DHT22;65033;44.660;37.758;2022-11-20T05:49:52;27.82;48.44
75985;DHT22;65033;44.660;37.758;2022-11-20T05:50:57;27.81;48.41
75985;DHT22;65033;44.660;37.758;2022-11-20T05:52:01;27.81;48.43
75985;DHT22;65033;44.660;37.758;2022-11-20T05:53:05;27.81;48.57
75985;DHT22;65033;44.660;37.758;2022-11-20T05:54:09;27.81;48.87
75985;DHT22;65033;44.660;37.758;2022-11-20T05:55:12;27.83;49.27
75985;DHT22;65033;44.660;37.758;2022-11-20T05:56:17;27.83;49.60
75985;DHT22;65033;44.660;37.758;2022-11-20T05:57:21;27.83;49.94
75985;DHT22;65033;44.660;37.758;2022-11-20T05:58:24;27.86;50.10
75985;DHT22;65033;44.660;37.758;2022-11-20T05:59:28;27.86;50.24
75985;DHT22;65033;44.660;37.758;2022-11-20T06:00:31;27.86;50.24
75985;DHT22;65033;44.660;37.758;2022-11-20T06:01:35;27.86;50.47
75985;DHT22;65033;44.660;37.758;2022-11-20T06:02:41;27.87;50.61
75985;DHT22;65033;44.660;37.758;2022-11-20T06:03:48;27.87;50.71
75985;DHT22;65033;44.660;37.758;2022-11-20T06:04:53;27.88;50.89
75985;DHT22;65033;44.660;37.758;2022-11-20T06:06:00;27.89;50.80
75985;DHT22;65033;44.660;37.758;2022-11-20T06:07:05;27.89;50.72
75985;DHT22;65033;44.660;37.758;2022-11-20T06:08:11;27.89;50.70
75985;DHT22;65033;44.660;37.758;2022-11-20T06:09:15;27.91;50.66
75985;DHT22;65033;44.660;37.758;2022-11-20T06:10:21;27.90;50.63
75985;DHT22;65033;44.660;37.758;2022-11-20T06:11:25;27.93;50.98
75985;DHT22;65033;44.660;37.758;2022-11-20T06:12:34;27.94;51.27
75985;DHT22;65033;44.660;37.758;2022-11-20T06:13:50;27.93;51.53
75985;DHT22;65033;44.660;37.758;2022-11-20T06:14:58;27.94;51.92
75985;DHT22;65033;44.660;37.758;2022-11-20T06:16:04;27.95;52.40
75985;DHT22;65033;44.660;37.758;2022-11-20T06:17:10;27.96;52.15
75985;DHT22;65033;44.660;37.758;2022-11-20T06:18:26;27.95;52.62
75985;DHT22;65033;44.660;37.758;2022-11-20T06:19:32;27.97;52.30
75985;DHT22;65033;44.660;37.758;2022-11-20T06:20:36;27.96;52.62
75985;DHT22;65033;44.660;37.758;2022-11-20T06:21:42;27.98;52.42
75985;DHT22;65033;44.660;37.758;2022-11-20T06:22:45;27.97;52.41
75985;DHT22;65033;44.660;37.758;2022-11-20T06:23:49;27.98;52.43
75985;DHT22;65033;44.660;37.758;2022-11-20T06:24:53;27.98;52.24
75985;DHT22;65033;44.660;37.758;2022-11-20T06:25:56;28.00;52.45
75985;DHT22;65033;44.660;37.758;2022-11-20T06:27:00;28.00;52.38
75985;DHT22;65033;44.660;37.758;2022-11-20T06:28:03;27.98;52.59
75985;DHT22;65033;44.660;37.758;2022-11-20T06:29:07;27.99;52.65
75985;DHT22;65033;44.660;37.758;2022-11-20T06:30:11;28.00;52.74
75985;DHT22;65033;44.660;37.758;2022-11-20T06:31:17;27.98;53.09
75985;DHT22;65033;44.660;37.758;2022-11-20T06:32:21;27.99;52.93
75985;DHT22;65033;44.660;37.758;2022-11-20T06:33:25;27.98;52.94
75985;DHT22;65033;44.660;37.758;2022-11-20T06:34:29;27.99;52.98
75985;DHT22;65033;44.660;37.758;2022-11-20T06:35:32;27.99;53.07
75985;DHT22;65033;44.660;37.758;2022-11-20T06:36:36;27.99;52.95
75985;DHT22;65033;44.660;37.758;2022-11-20T06:37:39;27.98;53.07
75985;DHT22;65033;44.660;37.758;2022-11-20T06:38:43;27.99;52.95
75985;DHT22;65033;44.660;37.758;2022-11-20T06:39:46;27.98;53.09
75985;DHT22;65033;44.660;37.758;2022-11-20T06:40:50;27.99;52.99
75985;DHT22;65033;44.660;37.758;2022-11-20T06:41:53;27.99;53.01
75985;DHT22;65033;44.660;37.758;2022-11-20T06:43:00;27.99;52.98
75985;DHT22;65033;44.660;37.758;2022-11-20T06:44:04;27.99;53.06
75985;DHT22;65033;44.660;37.758;2022-11-20T06:45:09;28.00;53.05
75985;DHT22;65033;44.660;37.758;2022-11-20T06:46:13;28.00;53.01